Terminal Aerodrome Forecast
Issued by NWS Detroit/Pontiac, MI

Home | Current Version | Previous Version | Text Only | Print | Product List | Glossary On
Versions: 1 2 3 4 5 6 7 8 9 10 11 12 13 14 15 16 17 18 19 20 21 22 23 24 25 26 27 28 29 30 31
000
FTUS43 KDTX 281513 AAA
TAFDTW
TAF AMD
KDTW 281513Z 2815/2918 15005KT P6SM SCT035
     FM282000 16010KT P6SM SCT050
     FM290100 09005KT P6SM SKC
     FM291400 17008KT P6SM SCT030=

USA.gov is the U.S. government's official web portal to all federal, state and local government web resources and services.